createdAt,value
2023-01-19T00:00:02.130Z,1002.5
2023-01-19T00:01:02.049Z,1002.5
2023-01-19T00:02:02.191Z,1002.4
2023-01-19T00:03:02.480Z,1002.4
2023-01-19T00:04:02.289Z,1002.5
2023-01-19T00:05:02.183Z,1002.4
2023-01-19T00:06:02.215Z,1002.5
2023-01-19T00:07:02.066Z,1002.4
2023-01-19T00:08:03.324Z,1002.5
2023-01-19T00:09:02.169Z,1002.5
2023-01-19T00:10:02.139Z,1002.5
2023-01-19T00:11:02.035Z,1002.5
2023-01-19T00:12:02.040Z,1002.5
2023-01-19T00:13:03.468Z,1002.5
2023-01-19T00:14:02.302Z,1002.5
2023-01-19T00:15:02.250Z,1002.5
2023-01-19T00:16:02.411Z,1002.5
2023-01-19T00:17:02.432Z,1002.5
2023-01-19T00:18:02.349Z,1002.5
2023-01-19T00:19:02.318Z,1002.6
2023-01-19T00:20:02.320Z,1002.7
2023-01-19T00:21:02.189Z,1002.6
2023-01-19T00:22:02.148Z,1002.6
2023-01-19T00:23:03.265Z,1002.5
2023-01-19T00:24:02.105Z,1002.6
2023-01-19T00:25:02.025Z,1002.6
2023-01-19T00:26:02.004Z,1002.6
2023-01-19T00:27:01.964Z,1002.6
2023-01-19T00:28:02.402Z,1002.6
2023-01-19T00:29:02.141Z,1002.6
2023-01-19T00:30:02.124Z,1002.7
2023-01-19T00:31:02.022Z,1002.7
2023-01-19T00:32:02.331Z,1002.6
2023-01-19T00:33:03.822Z,1002.6
2023-01-19T00:34:01.718Z,1002.7
2023-01-19T00:35:02.714Z,1002.7
2023-01-19T00:36:02.754Z,1002.7
2023-01-19T00:37:02.624Z,1002.7
2023-01-19T00:38:02.556Z,1002.7
2023-01-19T00:39:02.553Z,1002.7
2023-01-19T00:40:02.463Z,1002.7
2023-01-19T00:41:02.390Z,1002.7
2023-01-19T00:42:02.309Z,1002.6
2023-01-19T00:43:03.411Z,1002.7
2023-01-19T00:44:02.252Z,1002.6
2023-01-19T00:45:02.204Z,1002.7
2023-01-19T00:46:02.254Z,1002.6
2023-01-19T00:47:02.293Z,1002.6
2023-01-19T00:48:02.372Z,1002.7
2023-01-19T00:49:02.231Z,1002.6
2023-01-19T00:50:02.151Z,1002.7
2023-01-19T00:51:02.043Z,1002.6
2023-01-19T00:52:02.013Z,1002.5
2023-01-19T00:53:03.415Z,1002.6
2023-01-19T00:54:02.252Z,1002.5
2023-01-19T00:55:02.239Z,1002.6
2023-01-19T00:56:02.196Z,1002.6
2023-01-19T00:57:02.091Z,1002.5
2023-01-19T00:58:02.144Z,1002.5
2023-01-19T00:59:02.008Z,1002.5
2023-01-19T01:00:02.138Z,1002.5
2023-01-19T01:01:02.390Z,1002.5
2023-01-19T01:02:03.247Z,1002.5
2023-01-19T01:03:03.781Z,1002.5
2023-01-19T01:04:01.816Z,1002.4
2023-01-19T01:05:02.012Z,1002.5
2023-01-19T01:06:01.826Z,1002.4
2023-01-19T01:07:01.813Z,1002.5
2023-01-19T01:08:01.862Z,1002.4
2023-01-19T01:09:01.792Z,1002.4
2023-01-19T01:10:01.836Z,1002.5
2023-01-19T01:11:01.871Z,1002.4
2023-01-19T01:12:01.777Z,1002.4
2023-01-19T01:13:26.309Z,1002.4
2023-01-19T01:14:02.075Z,1002.4
2023-01-19T01:15:02.099Z,1002.4
2023-01-19T01:16:01.867Z,1002.4
2023-01-19T01:17:02.061Z,1002.4
2023-01-19T01:18:02.000Z,1002.4
2023-01-19T01:19:01.975Z,1002.4
2023-01-19T01:20:01.881Z,1002.4
2023-01-19T01:21:02.062Z,1002.5
2023-01-19T01:22:01.814Z,1002.4
2023-01-19T01:23:03.267Z,1002.4
2023-01-19T01:24:02.186Z,1002.4
2023-01-19T01:25:02.102Z,1002.4
2023-01-19T01:26:02.041Z,1002.4
2023-01-19T01:27:02.106Z,1002.4
2023-01-19T01:28:02.108Z,1002.4
2023-01-19T01:29:02.111Z,1002.4
2023-01-19T01:30:02.111Z,1002.4
2023-01-19T01:31:02.115Z,1002.4
2023-01-19T01:32:02.163Z,1002.4
2023-01-19T01:33:03.443Z,1002.4
2023-01-19T01:34:02.279Z,1002.5
2023-01-19T01:35:02.246Z,1002.6
2023-01-19T01:36:02.129Z,1002.6
2023-01-19T01:37:02.086Z,1002.6
2023-01-19T01:38:01.984Z,1002.7
2023-01-19T01:39:01.973Z,1002.7
2023-01-19T01:40:02.002Z,1002.8
2023-01-19T01:41:01.925Z,1002.7
2023-01-19T01:42:01.862Z,1002.8
2023-01-19T01:43:03.171Z,1002.8
2023-01-19T01:44:02.256Z,1002.7
2023-01-19T01:45:02.038Z,1002.7
2023-01-19T01:46:02.186Z,1002.7
2023-01-19T01:47:02.140Z,1002.7
2023-01-19T01:48:02.086Z,1002.7
2023-01-19T01:49:02.214Z,1002.7
2023-01-19T01:50:02.146Z,1002.7
2023-01-19T01:51:02.106Z,1002.7
2023-01-19T01:52:02.037Z,1002.7
2023-01-19T01:53:08.542Z,1002.6
2023-01-19T01:54:02.375Z,1002.6
2023-01-19T01:55:02.297Z,1002.6
2023-01-19T01:56:02.299Z,1002.6
2023-01-19T01:57:02.204Z,1002.6
2023-01-19T01:58:02.190Z,1002.6
2023-01-19T01:59:02.091Z,1002.7
2023-01-19T02:00:02.131Z,1002.6
2023-01-19T02:01:02.541Z,1002.7
2023-01-19T02:02:03.323Z,1002.7
2023-01-19T02:03:04.127Z,1002.7
2023-01-19T02:04:02.127Z,1002.7
2023-01-19T02:05:02.090Z,1002.7
2023-01-19T02:06:02.067Z,1002.7
2023-01-19T02:07:02.039Z,1002.7
2023-01-19T02:08:02.091Z,1002.7
2023-01-19T02:09:02.130Z,1002.7
2023-01-19T02:10:02.129Z,1002.7
2023-01-19T02:11:02.055Z,1002.7
2023-01-19T02:12:02.009Z,1002.7
2023-01-19T02:13:03.431Z,1002.7
2023-01-19T02:14:02.351Z,1002.8
2023-01-19T02:15:02.240Z,1002.8
2023-01-19T02:16:02.214Z,1002.8
2023-01-19T02:17:02.309Z,1002.8
2023-01-19T02:18:02.267Z,1002.8
2023-01-19T02:19:02.179Z,1002.8
2023-01-19T02:20:02.134Z,1002.8
2023-01-19T02:21:02.058Z,1002.8
2023-01-19T02:22:02.012Z,1002.8
2023-01-19T02:23:03.650Z,1002.9
2023-01-19T02:24:02.557Z,1002.9
2023-01-19T02:25:02.489Z,1002.9
2023-01-19T02:26:02.428Z,1002.8
2023-01-19T02:27:02.363Z,1002.9
2023-01-19T02:28:02.309Z,1002.9
2023-01-19T02:29:02.292Z,1002.9
2023-01-19T02:30:02.181Z,1002.8
2023-01-19T02:31:02.190Z,1002.9
2023-01-19T02:32:02.327Z,1002.9
2023-01-19T02:33:03.569Z,1002.9
2023-01-19T02:34:02.486Z,1002.9
2023-01-19T02:35:02.416Z,1002.9
2023-01-19T02:36:02.392Z,1002.9
2023-01-19T02:37:02.351Z,1002.9
2023-01-19T02:38:02.272Z,1002.8
2023-01-19T02:39:02.212Z,1002.9
2023-01-19T02:40:02.204Z,1002.9
2023-01-19T02:41:02.078Z,1002.9
2023-01-19T02:42:02.003Z,1002.9
2023-01-19T02:43:03.349Z,1002.8
2023-01-19T02:44:02.191Z,1002.9
2023-01-19T02:45:02.139Z,1002.9
2023-01-19T02:46:02.194Z,1002.8
2023-01-19T02:47:02.052Z,1002.8
2023-01-19T02:48:02.020Z,1002.8
2023-01-19T02:49:02.054Z,1002.9
2023-01-19T02:50:01.875Z,1002.8
2023-01-19T02:51:01.783Z,1002.8
2023-01-19T02:52:01.763Z,1002.9
2023-01-19T02:53:03.087Z,1002.9
2023-01-19T02:54:01.901Z,1002.9
2023-01-19T02:55:01.795Z,1002.9
2023-01-19T02:56:01.759Z,1003
2023-01-19T02:57:02.724Z,1002.9
2023-01-19T02:58:02.661Z,1003
2023-01-19T02:59:02.619Z,1003
2023-01-19T03:00:02.694Z,1002.9
2023-01-19T03:01:02.903Z,1003
2023-01-19T03:02:02.686Z,1003
2023-01-19T03:03:04.401Z,1003
2023-01-19T03:04:02.541Z,1002.9
2023-01-19T03:05:06.153Z,1002.9
2023-01-19T03:06:01.899Z,1002.9
2023-01-19T03:07:01.843Z,1003
2023-01-19T03:08:01.807Z,1002.9
2023-01-19T03:09:01.778Z,1002.9
2023-01-19T03:10:02.676Z,1003
2023-01-19T03:11:02.655Z,1002.9
2023-01-19T03:12:02.614Z,1002.9
2023-01-19T03:13:03.933Z,1003
2023-01-19T03:14:02.462Z,1003
2023-01-19T03:15:02.205Z,1002.9
2023-01-19T03:16:02.270Z,1002.9
2023-01-19T03:17:02.086Z,1003
2023-01-19T03:18:02.010Z,1003
2023-01-19T03:19:01.954Z,1003
2023-01-19T03:20:02.015Z,1002.9
2023-01-19T03:21:02.028Z,1002.9
2023-01-19T03:22:02.017Z,1002.9
2023-01-19T03:23:03.784Z,1003
2023-01-19T03:24:02.687Z,1002.9
2023-01-19T03:25:02.641Z,1002.9
2023-01-19T03:26:02.590Z,1002.9
2023-01-19T03:27:02.568Z,1002.9
2023-01-19T03:28:02.521Z,1002.9
2023-01-19T03:29:02.519Z,1002.9
2023-01-19T03:30:02.435Z,1002.9
2023-01-19T03:31:02.540Z,1002.9
2023-01-19T03:32:02.313Z,1002.9
2023-01-19T03:33:03.452Z,1002.9
2023-01-19T03:34:02.276Z,1002.9
2023-01-19T03:35:02.196Z,1002.9
2023-01-19T03:36:02.120Z,1002.9
2023-01-19T03:37:02.117Z,1003
2023-01-19T03:38:02.012Z,1002.9
2023-01-19T03:39:01.977Z,1002.9
2023-01-19T03:40:01.978Z,1003
2023-01-19T03:41:01.946Z,1002.9
2023-01-19T03:42:01.907Z,1002.9
2023-01-19T03:43:03.479Z,1002.9
2023-01-19T03:44:02.454Z,1003
2023-01-19T03:45:02.633Z,1003
2023-01-19T03:46:02.577Z,1003
2023-01-19T03:47:02.412Z,1003
2023-01-19T03:48:02.367Z,1003.1
2023-01-19T03:49:02.322Z,1003.1
2023-01-19T03:50:02.206Z,1003.1
2023-01-19T03:51:02.147Z,1003
2023-01-19T03:52:02.128Z,1003.1
2023-01-19T03:53:03.387Z,1003.1
2023-01-19T03:54:02.213Z,1003.1
2023-01-19T03:55:02.196Z,1003.1
2023-01-19T03:56:02.204Z,1003.1
2023-01-19T03:57:02.135Z,1003.1
2023-01-19T03:58:02.239Z,1003.1
2023-01-19T03:59:02.020Z,1003.1
2023-01-19T04:00:01.994Z,1003
2023-01-19T04:01:02.135Z,1003.1
2023-01-19T04:02:02.154Z,1003.2
2023-01-19T04:03:03.603Z,1003.1
2023-01-19T04:04:02.579Z,1003.1
2023-01-19T04:05:02.495Z,1003.1
2023-01-19T04:06:02.511Z,1003.1
2023-01-19T04:07:02.398Z,1003.1
2023-01-19T04:08:02.380Z,1003.2
2023-01-19T04:09:02.309Z,1003.1
2023-01-19T04:10:02.303Z,1003.2
2023-01-19T04:11:02.219Z,1003.2
2023-01-19T04:12:02.173Z,1003.1
2023-01-19T04:13:03.406Z,1003.2
2023-01-19T04:14:02.251Z,1003.2
2023-01-19T04:15:02.230Z,1003.2
2023-01-19T04:16:02.423Z,1003.2
2023-01-19T04:17:02.099Z,1003.1
2023-01-19T04:18:02.151Z,1003.2
2023-01-19T04:19:01.971Z,1003.2
2023-01-19T04:20:01.999Z,1003.1
2023-01-19T04:21:01.984Z,1003.1
2023-01-19T04:22:01.887Z,1003.2
2023-01-19T04:23:03.144Z,1003.3
2023-01-19T04:24:02.073Z,1003.2
2023-01-19T04:25:01.998Z,1003.2
2023-01-19T04:26:02.003Z,1003.3
2023-01-19T04:27:01.972Z,1003.3
2023-01-19T04:28:01.874Z,1003.3
2023-01-19T04:29:01.808Z,1003.3
2023-01-19T04:30:01.804Z,1003.3
2023-01-19T04:31:01.889Z,1003.4
2023-01-19T04:32:02.532Z,1003.4
2023-01-19T04:33:04.010Z,1003.4
2023-01-19T04:34:02.018Z,1003.4
2023-01-19T04:35:01.892Z,1003.4
2023-01-19T04:36:01.901Z,1003.4
2023-01-19T04:37:01.798Z,1003.4
2023-01-19T04:38:01.775Z,1003.4
2023-01-19T04:39:01.778Z,1003.4
2023-01-19T04:40:01.722Z,1003.5
2023-01-19T04:41:02.649Z,1003.5
2023-01-19T04:42:02.582Z,1003.6
2023-01-19T04:43:03.769Z,1003.5
2023-01-19T04:44:02.687Z,1003.5
2023-01-19T04:45:02.661Z,1003.6
2023-01-19T04:46:02.580Z,1003.5
2023-01-19T04:47:02.488Z,1003.5
2023-01-19T04:48:02.403Z,1003.4
2023-01-19T04:49:02.382Z,1003.5
2023-01-19T04:50:02.284Z,1003.4
2023-01-19T04:51:02.112Z,1003.5
2023-01-19T04:52:02.055Z,1003.5
2023-01-19T04:53:03.072Z,1003.5
2023-01-19T04:54:02.111Z,1003.5
2023-01-19T04:55:01.992Z,1003.6
2023-01-19T04:56:01.821Z,1003.6
2023-01-19T04:57:01.839Z,1003.6
2023-01-19T04:58:01.823Z,1003.6
2023-01-19T04:59:01.758Z,1003.6
2023-01-19T05:00:01.819Z,1003.6
2023-01-19T05:01:01.855Z,1003.6
2023-01-19T05:02:02.947Z,1003.7
2023-01-19T05:03:03.205Z,1003.6
2023-01-19T05:04:02.263Z,1003.7
2023-01-19T05:05:02.218Z,1003.7
2023-01-19T05:06:02.135Z,1003.7
2023-01-19T05:07:02.050Z,1003.7
2023-01-19T05:08:02.008Z,1003.8
2023-01-19T05:09:01.933Z,1003.8
2023-01-19T05:10:01.891Z,1003.8
2023-01-19T05:11:01.841Z,1003.8
2023-01-19T05:12:01.779Z,1003.8
2023-01-19T05:13:02.981Z,1003.7
2023-01-19T05:14:01.872Z,1003.8
2023-01-19T05:15:01.842Z,1003.7
2023-01-19T05:16:01.917Z,1003.8
2023-01-19T05:17:02.606Z,1003.8
2023-01-19T05:18:02.528Z,1003.8
2023-01-19T05:19:02.484Z,1003.8
2023-01-19T05:20:02.563Z,1003.9
2023-01-19T05:21:02.384Z,1003.8
2023-01-19T05:22:02.296Z,1003.8
2023-01-19T05:23:03.619Z,1003.8
2023-01-19T05:24:02.510Z,1003.8
2023-01-19T05:25:02.545Z,1003.7
2023-01-19T05:26:02.626Z,1003.8
2023-01-19T05:27:02.520Z,1003.8
2023-01-19T05:28:02.446Z,1003.8
2023-01-19T05:29:02.362Z,1003.8
2023-01-19T05:30:02.294Z,1003.8
2023-01-19T05:31:02.610Z,1003.7
2023-01-19T05:32:02.980Z,1003.7
2023-01-19T05:33:03.212Z,1003.7
2023-01-19T05:34:02.031Z,1003.6
2023-01-19T05:35:01.971Z,1003.7
2023-01-19T05:36:01.993Z,1003.7
2023-01-19T05:37:01.920Z,1003.6
2023-01-19T05:38:01.854Z,1003.7
2023-01-19T05:39:01.770Z,1003.7
2023-01-19T05:40:01.756Z,1003.6
2023-01-19T05:41:01.767Z,1003.6
2023-01-19T05:42:02.717Z,1003.6
2023-01-19T05:43:04.354Z,1003.6
2023-01-19T05:44:02.254Z,1003.6
2023-01-19T05:45:02.222Z,1003.7
2023-01-19T05:46:02.147Z,1003.6
2023-01-19T05:47:01.923Z,1003.6
2023-01-19T05:48:01.896Z,1003.5
2023-01-19T05:49:01.889Z,1003.5
2023-01-19T05:50:01.774Z,1003.5
2023-01-19T05:51:02.044Z,1003.5
2023-01-19T05:52:01.806Z,1003.5
2023-01-19T05:53:03.356Z,1003.5
2023-01-19T05:54:02.229Z,1003.5
2023-01-19T05:55:02.155Z,1003.5
2023-01-19T05:56:02.131Z,1003.6
2023-01-19T05:57:02.086Z,1003.6
2023-01-19T05:58:02.118Z,1003.6
2023-01-19T05:59:02.029Z,1003.6
2023-01-19T06:00:02.071Z,1003.6
2023-01-19T06:01:02.248Z,1003.6
2023-01-19T06:02:02.184Z,1003.6
2023-01-19T06:03:04.095Z,1003.6
2023-01-19T06:04:02.101Z,1003.6
2023-01-19T06:05:02.021Z,1003.7
2023-01-19T06:06:02.058Z,1003.6
2023-01-19T06:07:02.005Z,1003.6
2023-01-19T06:08:01.865Z,1003.5
2023-01-19T06:09:01.818Z,1003.6
2023-01-19T06:10:01.890Z,1003.5
2023-01-19T06:11:02.693Z,1003.5
2023-01-19T06:12:02.635Z,1003.5
2023-01-19T06:13:03.911Z,1003.5
2023-01-19T06:14:01.773Z,1003.5
2023-01-19T06:15:01.759Z,1003.5
2023-01-19T06:16:02.846Z,1003.5
2023-01-19T06:17:02.686Z,1003.6
2023-01-19T06:18:02.623Z,1003.6
2023-01-19T06:19:02.605Z,1003.6
2023-01-19T06:20:02.566Z,1003.6
2023-01-19T06:21:02.520Z,1003.7
2023-01-19T06:22:02.571Z,1003.7
2023-01-19T06:23:03.488Z,1003.7
2023-01-19T06:24:02.352Z,1003.6
2023-01-19T06:25:02.321Z,1003.7
2023-01-19T06:26:02.181Z,1003.7
2023-01-19T06:27:02.135Z,1003.7
2023-01-19T06:28:02.120Z,1003.8
2023-01-19T06:29:02.252Z,1003.8
2023-01-19T06:30:02.080Z,1003.9
2023-01-19T06:31:02.231Z,1003.9
2023-01-19T06:32:02.094Z,1003.9
2023-01-19T06:33:03.137Z,1003.9
2023-01-19T06:34:01.992Z,1004
2023-01-19T06:35:01.962Z,1004
2023-01-19T06:36:01.975Z,1003.9
2023-01-19T06:37:01.962Z,1004
2023-01-19T06:38:01.943Z,1004.1
2023-01-19T06:39:01.871Z,1004.1
2023-01-19T06:40:01.806Z,1004
2023-01-19T06:41:01.755Z,1004
2023-01-19T06:42:02.725Z,1004.1
2023-01-19T06:43:03.850Z,1004.1
2023-01-19T06:44:02.668Z,1004
2023-01-19T06:45:02.642Z,1004.1
2023-01-19T06:46:02.935Z,1004
2023-01-19T06:47:16.807Z,1004.1
2023-01-19T06:48:02.573Z,1004.1
2023-01-19T06:49:02.518Z,1004.2
2023-01-19T06:50:02.491Z,1004.3
2023-01-19T06:51:02.425Z,1004.3
2023-01-19T06:52:02.356Z,1004.3
2023-01-19T06:53:03.508Z,1004.4
2023-01-19T06:54:02.406Z,1004.4
2023-01-19T06:55:02.348Z,1004.4
2023-01-19T06:56:04.488Z,1004.4
2023-01-19T06:57:03.788Z,1004.5
2023-01-19T06:58:02.880Z,1004.5
2023-01-19T06:59:02.690Z,1004.6
2023-01-19T07:00:02.661Z,1004.6
2023-01-19T07:01:03.040Z,1004.6
2023-01-19T07:02:29.133Z,1004.6
2023-01-19T07:03:03.513Z,1004.6
2023-01-19T07:04:02.517Z,1004.6
2023-01-19T07:05:02.503Z,1004.7
2023-01-19T07:06:02.447Z,1004.7
2023-01-19T07:07:02.354Z,1004.8
2023-01-19T07:08:02.423Z,1004.7
2023-01-19T07:09:02.272Z,1004.8
2023-01-19T07:10:02.257Z,1004.8
2023-01-19T07:11:32.812Z,1004.8
2023-01-19T07:12:02.743Z,1004.7
2023-01-19T07:13:04.533Z,1004.8
2023-01-19T07:14:02.455Z,1004.8
2023-01-19T07:15:02.382Z,1004.8
2023-01-19T07:16:02.003Z,1004.9
2023-01-19T07:17:02.095Z,1004.9
2023-01-19T07:18:02.042Z,1004.9
2023-01-19T07:19:01.975Z,1004.9
2023-01-19T07:20:01.885Z,1004.9
2023-01-19T07:21:01.836Z,1004.8
2023-01-19T07:22:01.764Z,1004.8
2023-01-19T07:23:02.931Z,1004.9
2023-01-19T07:24:01.779Z,1004.9
2023-01-19T07:25:02.756Z,1004.9
2023-01-19T07:26:02.656Z,1004.9
2023-01-19T07:27:02.598Z,1004.9
2023-01-19T07:28:02.639Z,1005
2023-01-19T07:29:02.744Z,1005
2023-01-19T07:30:02.503Z,1005
2023-01-19T07:31:02.812Z,1005
2023-01-19T07:32:02.422Z,1005
2023-01-19T07:33:03.730Z,1005
2023-01-19T07:34:02.665Z,1005
2023-01-19T07:35:02.648Z,1005.1
2023-01-19T07:36:02.610Z,1005.1
2023-01-19T07:37:02.567Z,1005
2023-01-19T07:38:02.530Z,1005.1
2023-01-19T07:39:02.473Z,1005.1
2023-01-19T07:40:02.394Z,1005.1
2023-01-19T07:41:02.374Z,1005.1
2023-01-19T07:42:02.252Z,1005.1
2023-01-19T07:43:03.642Z,1005.1
2023-01-19T07:44:02.691Z,1005
2023-01-19T07:45:01.713Z,1005.1
2023-01-19T07:46:02.857Z,1005.1
2023-01-19T07:47:02.507Z,1005
2023-01-19T07:48:02.499Z,1005.1
2023-01-19T07:49:02.399Z,1005
2023-01-19T07:50:02.356Z,1005
2023-01-19T07:51:02.281Z,1005
2023-01-19T07:52:02.322Z,1005.1
2023-01-19T07:53:03.369Z,1005
2023-01-19T07:54:02.167Z,1005
2023-01-19T07:55:02.147Z,1004.9
2023-01-19T07:56:02.125Z,1004.9
2023-01-19T07:57:02.133Z,1005
2023-01-19T07:58:02.040Z,1005
2023-01-19T07:59:01.940Z,1005
2023-01-19T08:00:01.876Z,1005.1
2023-01-19T08:01:02.112Z,1005
2023-01-19T08:02:02.946Z,1005.1
2023-01-19T08:03:04.361Z,1005
2023-01-19T08:04:02.415Z,1005
2023-01-19T08:05:02.307Z,1005
2023-01-19T08:06:02.219Z,1005.1
2023-01-19T08:07:02.160Z,1005.1
2023-01-19T08:08:02.092Z,1005.2
2023-01-19T08:09:02.087Z,1005.3
2023-01-19T08:10:02.110Z,1005.3
2023-01-19T08:11:01.907Z,1005.2
2023-01-19T08:12:01.821Z,1005.3
2023-01-19T08:13:03.167Z,1005.3
2023-01-19T08:14:02.115Z,1005.3
2023-01-19T08:15:01.985Z,1005.2
2023-01-19T08:16:02.103Z,1005.3
2023-01-19T08:17:01.870Z,1005.3
2023-01-19T08:18:01.853Z,1005.4
2023-01-19T08:19:01.689Z,1005.4
2023-01-19T08:20:02.672Z,1005.4
2023-01-19T08:21:02.604Z,1005.4
2023-01-19T08:22:02.538Z,1005.4
2023-01-19T08:23:04.382Z,1005.4
2023-01-19T08:24:02.678Z,1005.4
2023-01-19T08:25:02.416Z,1005.4
2023-01-19T08:26:02.379Z,1005.4
2023-01-19T08:27:02.350Z,1005.4
2023-01-19T08:28:02.259Z,1005.5
2023-01-19T08:29:02.233Z,1005.4
2023-01-19T08:30:02.181Z,1005.4
2023-01-19T08:31:24.578Z,1005.4
2023-01-19T08:32:02.953Z,1005.4
2023-01-19T08:33:03.220Z,1005.4
2023-01-19T08:34:02.175Z,1005.4
2023-01-19T08:35:02.079Z,1005.4
2023-01-19T08:36:02.068Z,1005.3
2023-01-19T08:37:02.111Z,1005.4
2023-01-19T08:38:02.320Z,1005.3
2023-01-19T08:39:02.059Z,1005.3
2023-01-19T08:40:02.007Z,1005.3
2023-01-19T08:41:02.008Z,1005.4
2023-01-19T08:42:02.004Z,1005.3
2023-01-19T08:43:03.361Z,1005.3
2023-01-19T08:44:02.267Z,1005.3
2023-01-19T08:45:02.233Z,1005.3
2023-01-19T08:46:02.297Z,1005.3
2023-01-19T08:47:02.321Z,1005.3
2023-01-19T08:48:02.139Z,1005.3
2023-01-19T08:49:02.172Z,1005.4
2023-01-19T08:50:02.167Z,1005.4
2023-01-19T08:51:01.998Z,1005.4
2023-01-19T08:52:01.966Z,1005.4
2023-01-19T08:53:03.455Z,1005.3
2023-01-19T08:54:02.392Z,1005.3
2023-01-19T08:55:02.302Z,1005.3
2023-01-19T08:56:02.236Z,1005.3
2023-01-19T08:57:02.165Z,1005.3
2023-01-19T08:58:03.174Z,1005.4
2023-01-19T08:59:14.022Z,1005.5
2023-01-19T09:00:02.060Z,1005.6
2023-01-19T09:01:04.563Z,1005.5
2023-01-19T09:02:02.801Z,1005.5
2023-01-19T09:03:04.191Z,1005.5
2023-01-19T09:04:02.135Z,1005.6
2023-01-19T09:05:02.135Z,1005.6
2023-01-19T09:06:02.040Z,1005.7
2023-01-19T09:07:02.025Z,1005.6
2023-01-19T09:08:03.136Z,1005.7
2023-01-19T09:09:02.011Z,1005.7
2023-01-19T09:10:01.947Z,1005.7
2023-01-19T09:11:01.879Z,1005.8
2023-01-19T09:12:01.786Z,1005.8
2023-01-19T09:13:01.719Z,1005.8
2023-01-19T09:14:02.721Z,1005.8
2023-01-19T09:15:02.896Z,1005.8
2023-01-19T09:16:02.759Z,1005.7
2023-01-19T09:17:02.566Z,1005.8
2023-01-19T09:18:03.599Z,1005.8
2023-01-19T09:19:02.392Z,1005.8
2023-01-19T09:20:02.299Z,1005.8
2023-01-19T09:21:02.227Z,1005.8
2023-01-19T09:22:02.201Z,1005.9
2023-01-19T09:23:02.184Z,1005.8
2023-01-19T09:24:02.119Z,1005.9
2023-01-19T09:25:02.131Z,1005.8
2023-01-19T09:26:02.180Z,1005.9
2023-01-19T09:27:02.092Z,1005.8
2023-01-19T09:28:03.632Z,1005.9
2023-01-19T09:29:02.555Z,1005.8
2023-01-19T09:30:02.648Z,1005.9
2023-01-19T09:31:02.737Z,1005.9
2023-01-19T09:32:02.645Z,1006
2023-01-19T09:33:02.606Z,1006
2023-01-19T09:34:02.561Z,1006
2023-01-19T09:35:02.528Z,1005.9
2023-01-19T09:36:02.535Z,1005.9
2023-01-19T09:37:02.398Z,1005.9
2023-01-19T09:38:03.909Z,1005.9
2023-01-19T09:39:01.752Z,1005.8
2023-01-19T09:40:02.859Z,1005.8
2023-01-19T09:41:02.674Z,1005.8
2023-01-19T09:42:02.563Z,1005.8
2023-01-19T09:43:02.534Z,1005.8
2023-01-19T09:44:02.482Z,1005.8
2023-01-19T09:45:02.544Z,1005.8
2023-01-19T09:46:02.422Z,1005.8
2023-01-19T09:47:02.092Z,1005.8
2023-01-19T09:48:03.295Z,1005.8
2023-01-19T09:49:02.108Z,1005.8
2023-01-19T09:50:02.088Z,1005.7
2023-01-19T09:51:02.015Z,1005.7
2023-01-19T09:52:02.007Z,1005.8
2023-01-19T09:53:03.323Z,1005.8
2023-01-19T09:54:02.311Z,1005.8
2023-01-19T09:55:02.025Z,1005.8
2023-01-19T09:56:02.000Z,1005.8
2023-01-19T09:57:01.983Z,1005.8
2023-01-19T09:58:03.276Z,1005.7
2023-01-19T09:59:02.114Z,1005.7
2023-01-19T10:00:02.172Z,1005.6
2023-01-19T10:01:02.378Z,1005.6
2023-01-19T10:02:02.014Z,1005.6
2023-01-19T10:03:03.249Z,1005.5
2023-01-19T10:04:02.166Z,1005.5
2023-01-19T10:05:02.177Z,1005.5
2023-01-19T10:06:02.120Z,1005.5
2023-01-19T10:07:02.042Z,1005.5
2023-01-19T10:08:03.300Z,1005.4
2023-01-19T10:09:02.197Z,1005.5
2023-01-19T10:10:02.198Z,1005.5
2023-01-19T10:11:02.137Z,1005.5
2023-01-19T10:12:02.106Z,1005.4
2023-01-19T10:13:03.164Z,1005.4
2023-01-19T10:14:02.056Z,1005.5
2023-01-19T10:15:02.083Z,1005.5
2023-01-19T10:16:02.150Z,1005.5
2023-01-19T10:17:02.002Z,1005.5
2023-01-19T10:18:03.372Z,1005.5
2023-01-19T10:19:02.357Z,1005.5
2023-01-19T10:20:02.254Z,1005.5
2023-01-19T10:21:06.017Z,1005.6
2023-01-19T10:22:02.070Z,1005.5
2023-01-19T10:23:03.473Z,1005.5
2023-01-19T10:24:03.073Z,1005.5
2023-01-19T10:25:02.466Z,1005.4
2023-01-19T10:26:02.380Z,1005.5
2023-01-19T10:27:02.277Z,1005.4
2023-01-19T10:28:02.280Z,1005.5
2023-01-19T10:29:02.159Z,1005.5
2023-01-19T10:30:02.221Z,1005.4
2023-01-19T10:31:02.671Z,1005.4
2023-01-19T10:32:02.394Z,1005.4
2023-01-19T10:33:03.616Z,1005.4
2023-01-19T10:34:02.603Z,1005.3
2023-01-19T10:35:02.537Z,1005.3
2023-01-19T10:36:02.493Z,1005.3
2023-01-19T10:37:02.437Z,1005.3
2023-01-19T10:38:02.530Z,1005.4
2023-01-19T10:39:02.268Z,1005.3
2023-01-19T10:40:02.281Z,1005.2
2023-01-19T10:41:02.252Z,1005.2
2023-01-19T10:42:02.147Z,1005.3
2023-01-19T10:43:03.562Z,1005.3
2023-01-19T10:44:02.632Z,1005.3
2023-01-19T10:45:02.650Z,1005.4
2023-01-19T10:46:02.793Z,1005.3
2023-01-19T10:47:03.486Z,1005.3
2023-01-19T10:48:02.270Z,1005.3
2023-01-19T10:49:02.220Z,1005.3
2023-01-19T10:50:02.327Z,1005.3
2023-01-19T10:51:02.184Z,1005.3
2023-01-19T10:52:02.275Z,1005.3
2023-01-19T10:53:03.282Z,1005.3
2023-01-19T10:54:02.435Z,1005.2
2023-01-19T10:55:02.433Z,1005.3
2023-01-19T10:56:02.278Z,1005.3
2023-01-19T10:57:02.161Z,1005.3
2023-01-19T10:58:02.210Z,1005.3
2023-01-19T10:59:02.199Z,1005.3
2023-01-19T11:00:02.149Z,1005.2
2023-01-19T11:01:02.473Z,1005.2
2023-01-19T11:02:02.760Z,1005.2
2023-01-19T11:03:04.176Z,1005.2
2023-01-19T11:04:02.128Z,1005.2
2023-01-19T11:05:02.120Z,1005.2
2023-01-19T11:06:01.936Z,1005.2
2023-01-19T11:07:02.002Z,1005.2
2023-01-19T11:08:01.798Z,1005.3
2023-01-19T11:09:01.758Z,1005.3
2023-01-19T11:10:02.724Z,1005.3
2023-01-19T11:11:02.696Z,1005.3
2023-01-19T11:12:02.643Z,1005.3
2023-01-19T11:13:04.387Z,1005.3
2023-01-19T11:14:02.553Z,1005.1
2023-01-19T11:15:02.334Z,1005.2
2023-01-19T11:16:02.426Z,1005.1
2023-01-19T11:17:02.139Z,1005.2
2023-01-19T11:18:02.132Z,1005.1
2023-01-19T11:19:02.157Z,1005.2
2023-01-19T11:20:02.175Z,1005.1
2023-01-19T11:21:02.107Z,1005.1
2023-01-19T11:22:02.076Z,1005.1
2023-01-19T11:23:03.081Z,1005
2023-01-19T11:24:02.117Z,1005
2023-01-19T11:25:01.895Z,1005
2023-01-19T11:26:01.958Z,1005
2023-01-19T11:27:01.772Z,1005
2023-01-19T11:28:01.736Z,1005
2023-01-19T11:29:02.687Z,1005
2023-01-19T11:30:02.655Z,1005
2023-01-19T11:31:02.887Z,1005
2023-01-19T11:32:02.758Z,1004.9
2023-01-19T11:33:03.604Z,1005
2023-01-19T11:34:02.680Z,1005
2023-01-19T11:35:02.413Z,1005
2023-01-19T11:36:02.381Z,1005
2023-01-19T11:37:02.374Z,1005.1
2023-01-19T11:38:02.253Z,1005.1
2023-01-19T11:39:02.168Z,1005.1
2023-01-19T11:40:02.186Z,1005.2
2023-01-19T11:41:02.186Z,1005.1
2023-01-19T11:42:02.190Z,1005.1
2023-01-19T11:43:03.332Z,1005.1
2023-01-19T11:44:02.239Z,1005.1
2023-01-19T11:45:02.215Z,1005
2023-01-19T11:46:02.313Z,1005
2023-01-19T11:47:02.168Z,1005.1
2023-01-19T11:48:03.468Z,1005.1
2023-01-19T11:49:02.651Z,1005
2023-01-19T11:50:02.431Z,1005.1
2023-01-19T11:51:02.283Z,1005.1
2023-01-19T11:52:02.246Z,1005.1
2023-01-19T11:53:02.163Z,1005.2
2023-01-19T11:54:02.171Z,1005.1
2023-01-19T11:55:02.034Z,1005.1
2023-01-19T11:56:01.985Z,1005.2
2023-01-19T11:57:01.935Z,1005.2
2023-01-19T11:58:03.225Z,1005.2
2023-01-19T11:59:02.236Z,1005.1
2023-01-19T12:00:02.199Z,1005.1
2023-01-19T12:01:02.168Z,1005.1
2023-01-19T12:02:02.237Z,1005.1
2023-01-19T12:03:02.255Z,1005
2023-01-19T12:04:02.002Z,1005
2023-01-19T12:05:01.973Z,1005
2023-01-19T12:06:01.806Z,1005.1
2023-01-19T12:07:01.752Z,1005.1
2023-01-19T12:08:07.703Z,1005
2023-01-19T12:09:02.633Z,1005.1
2023-01-19T12:10:02.641Z,1005.1
2023-01-19T12:11:02.568Z,1005.1
2023-01-19T12:12:02.509Z,1005.2
2023-01-19T12:13:02.427Z,1005.1
2023-01-19T12:14:02.415Z,1005.1
2023-01-19T12:15:02.412Z,1005.2
2023-01-19T12:16:02.246Z,1005.1
2023-01-19T12:17:01.799Z,1005.2
2023-01-19T12:18:02.783Z,1005.2
2023-01-19T12:19:01.730Z,1005.2
2023-01-19T12:20:02.709Z,1005.2
2023-01-19T12:21:04.742Z,1005.2
2023-01-19T12:22:02.483Z,1005.2
2023-01-19T12:23:02.420Z,1005.2
2023-01-19T12:24:02.521Z,1005.2
2023-01-19T12:25:02.313Z,1005.2
2023-01-19T12:26:02.343Z,1005.2
2023-01-19T12:27:02.252Z,1005.1
2023-01-19T12:28:02.182Z,1005.1
2023-01-19T12:29:02.095Z,1005.1
2023-01-19T12:30:02.142Z,1005.2
2023-01-19T12:31:02.479Z,1005.1
2023-01-19T12:32:02.564Z,1005.1
2023-01-19T12:33:02.311Z,1005.1